Terminal Aerodrome Forecast
Issued by NWS Sioux Falls, SD

Home | Current Version | Previous Version | Text Only | Print | Product List | Glossary On
Versions: 1 2 3 4 5 6 7 8 9 10 11 12 13 14
668
FTUS43 KFSD 282322
TAFFSD
TAF
KFSD 282322Z 2900/2924 16014G20KT P6SM SCT250
     FM290100 16011KT P6SM FEW250
     FM290700 18007KT P6SM SCT250
     FM292100 16007KT P6SM SCT080 BKN250=

USA.gov is the U.S. government's official web portal to all federal, state and local government web resources and services.